Lowlands Sky — 3FJW9 — position and weather

sailwx.info

Track history (hours):
 
Tides and Currents Weather Stations Pressure Air Temp Water Temp Dewpoint Dewpoint Depression Visibility Wind Speed Wind Dir Waves Ship Positions

Lowlands Sky

Last reported at 2015-Jan-11 12:13 UTC. Time now 2015-Jan-27 08:25 UTC.
Position N 38°48' W 031°19'.
Warning: this ship's position is 15 days out of date.

Length 177 m; draft 10.7 m.

Type: Cargo ship. MMSI: 370830000.

Date/timePositionNaut miles runAvg speedWind from/ knotsBaromVisibWave heightAir tempDewpointWater temp
2015-Jan-11 12:13N 38°48' W 031°19'1810.8
2015-Jan-11 10:33N 38°51' W 030°57'1110.7
2015-Jan-11 09:32N 38°53' W 030°43'1010.7
2015-Jan-11 08:33N 38°55' W 030°29'1110.6
2015-Jan-11 07:33N 38°57' W 030°16'1110.7
2015-Jan-11 06:33N 38°60' W 030°03'1111.4
2015-Jan-11 05:33N 39°02' W 029°48'1111.0
2015-Jan-11 04:33N 39°05' W 029°35'1111.4
2015-Jan-11 03:33N 39°08' W 029°21'1211.7
2015-Jan-11 02:34N 39°12' W 029°06'1211.8
2015-Jan-11 01:33N 39°16' W 028°52'1211.8
2015-Jan-11 00:33N 39°21' W 028°38'1211.9
2015-Jan-10 23:34N 39°26' W 028°24'1212.0
2015-Jan-10 22:33N 39°32' W 028°11'1211.5
2015-Jan-10 21:33N 39°33' W 027°56'1111.3
2015-Jan-10 20:34N 39°34' W 027°41'1211.1
2015-Jan-10 19:31N 39°35' W 027°26'  
2015-Jan-05 15:22N 50°11' W 001°31'1215.0
2015-Jan-05 14:33N 50°15' W 001°13'1814.8
2015-Jan-05 13:21N 50°20' W 000°46'4711.8
2015-Jan-05 09:23N 50°34' E 000°24'8 9.8
2015-Jan-05 08:33N 50°37' E 000°36'1110.7
2015-Jan-05 07:32N 50°42' E 000°51'1812.8
2015-Jan-05 06:07N 50°53' E 001°14'814.0
2015-Jan-05 05:33N 50°58' E 001°23'1313.0
2015-Jan-05 04:34N 51°08' E 001°37'1211.8
2015-Jan-05 03:33N 51°17' E 001°50'1110.8
2015-Jan-05 02:33N 51°26' E 001°59'1010.4
2015-Jan-05 01:33N 51°33' E 002°10'1010.4
2015-Jan-05 00:33N 51°41' E 002°22'1311.3
2015-Jan-04 23:25N 51°51' E 002°35'3612.8
2015-Jan-04 20:33N 52°19' E 003°13'25 5.8
2015-Jan-04 16:11N 52°31' E 003°50'711.1
2015-Jan-04 15:33N 52°31' E 004°01'1111.0
2015-Jan-04 14:33N 52°30' E 004°19'10 9.7
2015-Jan-04 13:33N 52°28' E 004°35'9 4.4
2015-Jan-04 11:33N 52°25' E 004°49'1 1.3
2015-Jan-04 10:33N 52°24' E 004°49'0 0.0
2015-Jan-04 09:33N 52°24' E 004°49'0 0.0
2015-Jan-04 08:33N 52°24' E 004°49'0 0.0
2015-Jan-04 07:33N 52°24' E 004°49'0 0.0
2015-Jan-04 06:33N 52°24' E 004°49'0 0.0
2015-Jan-04 05:33N 52°24' E 004°49'0 0.0
2015-Jan-04 04:33N 52°24' E 004°49'0 0.0
2015-Jan-04 03:33N 52°24' E 004°49'0 0.0
2015-Jan-04 02:33N 52°24' E 004°49'0 0.0
2015-Jan-04 01:33N 52°24' E 004°49'0 0.0
2015-Jan-04 00:33N 52°24' E 004°49'0 0.0
2015-Jan-03 23:33N 52°24' E 004°49'0 0.0
2015-Jan-03 22:33N 52°24' E 004°49'0 0.0
2015-Jan-03 21:33N 52°24' E 004°49'0 0.0
2015-Jan-03 20:33N 52°24' E 004°49'0 0.0
2015-Jan-03 19:33N 52°24' E 004°49'0 0.0
2015-Jan-03 18:33N 52°24' E 004°49'0 0.0
2015-Jan-03 17:33N 52°24' E 004°49'0 0.0
2015-Jan-03 16:33N 52°24' E 004°49'0 0.0
2015-Jan-03 15:30N 52°24' E 004°49'0 0.0
2015-Jan-03 14:33N 52°24' E 004°49'0 0.0
2015-Jan-03 13:33N 52°24' E 004°49'0 0.0
2015-Jan-03 12:33N 52°24' E 004°49'0 0.0
2015-Jan-03 11:33N 52°24' E 004°49'0 0.0
2015-Jan-03 10:33N 52°24' E 004°49'0 0.0
2015-Jan-03 09:33N 52°24' E 004°49'0 0.0
2015-Jan-03 08:30N 52°24' E 004°49'0 0.0
2015-Jan-03 07:33N 52°24' E 004°49'0 0.0
2015-Jan-03 06:33N 52°24' E 004°49'0 0.0
2015-Jan-03 05:33N 52°24' E 004°49'0 0.0
2015-Jan-03 04:33N 52°24' E 004°49'0 0.0
2015-Jan-03 03:33N 52°24' E 004°49'0 0.0
2015-Jan-03 02:33N 52°24' E 004°49'0 0.0
2015-Jan-03 01:33N 52°24' E 004°49'0 0.0
2015-Jan-03 00:33N 52°24' E 004°49'0 0.0
2015-Jan-02 23:33N 52°24' E 004°49'0 0.0
2015-Jan-02 22:33N 52°24' E 004°49'0 0.0
2015-Jan-02 21:33N 52°24' E 004°49'0 0.0
2015-Jan-02 20:33N 52°24' E 004°49'0 0.0
2015-Jan-02 19:33N 52°24' E 004°49'0 0.0
2015-Jan-02 18:33N 52°24' E 004°49'0 0.0
2015-Jan-02 17:33N 52°24' E 004°49'0 0.0
2015-Jan-02 16:33N 52°24' E 004°49'0 0.0
2015-Jan-02 15:33N 52°24' E 004°49'0 0.0
2015-Jan-02 14:33N 52°24' E 004°49'0 0.0
2015-Jan-02 13:33N 52°24' E 004°49'0 0.0
2015-Jan-02 12:30N 52°24' E 004°49'0 0.0
2015-Jan-02 11:33N 52°24' E 004°49'0 0.0
2015-Jan-02 10:33N 52°24' E 004°49'0 0.0
2015-Jan-02 09:33N 52°24' E 004°49'0 0.0
2015-Jan-02 08:33N 52°24' E 004°49'0 0.0
2015-Jan-02 07:33N 52°24' E 004°49'0 0.0
2015-Jan-02 06:33N 52°24' E 004°49'0 0.0
2015-Jan-02 05:33N 52°24' E 004°49'0 0.0
2015-Jan-02 04:33N 52°24' E 004°49'0 0.0
2015-Jan-02 03:33N 52°24' E 004°49'0 0.0
2015-Jan-02 02:33N 52°24' E 004°49'0 0.0
2015-Jan-02 01:33N 52°24' E 004°49'0 0.0
2015-Jan-02 00:33N 52°24' E 004°49'0 0.0
2015-Jan-01 23:33N 52°24' E 004°49'0 0.0
2015-Jan-01 22:33N 52°24' E 004°49'0 0.0
2015-Jan-01 21:33N 52°24' E 004°49'0 0.0
2015-Jan-01 20:33N 52°24' E 004°49'0 0.0
2015-Jan-01 19:33N 52°24' E 004°49'0 0.0
2015-Jan-01 18:33N 52°24' E 004°49'0 0.0
2015-Jan-01 17:33N 52°24' E 004°49'0 0.0
2015-Jan-01 16:33N 52°24' E 004°49'0 0.0
2015-Jan-01 15:33N 52°24' E 004°49'0 0.0
2015-Jan-01 14:33N 52°24' E 004°49'0 0.0
2015-Jan-01 13:33N 52°24' E 004°49'0 0.0
2015-Jan-01 12:33N 52°24' E 004°49'  
Track history (hours):
 
Tides and Currents Weather Stations Pressure Air Temp Water Temp Dewpoint Dewpoint Depression Visibility Wind Speed Wind Dir Waves Ship Positions

Lowlands Sky

Last reported at 2015-Jan-11 12:13 UTC. Time now 2015-Jan-27 08:25 UTC.
Position N 38°48' W 031°19'.
Warning: this ship's position is 15 days out of date.

Length 177 m; draft 10.7 m.

Type: Cargo ship. MMSI: 370830000.

Date/timePositionNaut miles runAvg speedWind from/ knotsBaromVisibWave heightAir tempDewpointWater temp
2015-Jan-11 12:13N 38°48' W 031°19'1810.8
2015-Jan-11 10:33N 38°51' W 030°57'1110.7
2015-Jan-11 09:32N 38°53' W 030°43'1010.7
2015-Jan-11 08:33N 38°55' W 030°29'1110.6
2015-Jan-11 07:33N 38°57' W 030°16'1110.7
2015-Jan-11 06:33N 38°60' W 030°03'1111.4
2015-Jan-11 05:33N 39°02' W 029°48'1111.0
2015-Jan-11 04:33N 39°05' W 029°35'1111.4
2015-Jan-11 03:33N 39°08' W 029°21'1211.7
2015-Jan-11 02:34N 39°12' W 029°06'1211.8
2015-Jan-11 01:33N 39°16' W 028°52'1211.8
2015-Jan-11 00:33N 39°21' W 028°38'1211.9
2015-Jan-10 23:34N 39°26' W 028°24'1212.0
2015-Jan-10 22:33N 39°32' W 028°11'1211.5
2015-Jan-10 21:33N 39°33' W 027°56'1111.3
2015-Jan-10 20:34N 39°34' W 027°41'1211.1
2015-Jan-10 19:31N 39°35' W 027°26'  
2015-Jan-05 15:22N 50°11' W 001°31'1215.0
2015-Jan-05 14:33N 50°15' W 001°13'1814.8
2015-Jan-05 13:21N 50°20' W 000°46'4711.8
2015-Jan-05 09:23N 50°34' E 000°24'8 9.8
2015-Jan-05 08:33N 50°37' E 000°36'1110.7
2015-Jan-05 07:32N 50°42' E 000°51'1812.8
2015-Jan-05 06:07N 50°53' E 001°14'814.0
2015-Jan-05 05:33N 50°58' E 001°23'1313.0
2015-Jan-05 04:34N 51°08' E 001°37'1211.8
2015-Jan-05 03:33N 51°17' E 001°50'1110.8
2015-Jan-05 02:33N 51°26' E 001°59'1010.4
2015-Jan-05 01:33N 51°33' E 002°10'1010.4
2015-Jan-05 00:33N 51°41' E 002°22'1311.3
2015-Jan-04 23:25N 51°51' E 002°35'3612.8
2015-Jan-04 20:33N 52°19' E 003°13'25 5.8
2015-Jan-04 16:11N 52°31' E 003°50'711.1
2015-Jan-04 15:33N 52°31' E 004°01'1111.0
2015-Jan-04 14:33N 52°30' E 004°19'10 9.7
2015-Jan-04 13:33N 52°28' E 004°35'9 4.4
2015-Jan-04 11:33N 52°25' E 004°49'1 1.3
2015-Jan-04 10:33N 52°24' E 004°49'0 0.0
2015-Jan-04 09:33N 52°24' E 004°49'0 0.0
2015-Jan-04 08:33N 52°24' E 004°49'0 0.0
2015-Jan-04 07:33N 52°24' E 004°49'0 0.0
2015-Jan-04 06:33N 52°24' E 004°49'0 0.0
2015-Jan-04 05:33N 52°24' E 004°49'0 0.0
2015-Jan-04 04:33N 52°24' E 004°49'0 0.0
2015-Jan-04 03:33N 52°24' E 004°49'0 0.0
2015-Jan-04 02:33N 52°24' E 004°49'0 0.0
2015-Jan-04 01:33N 52°24' E 004°49'0 0.0
2015-Jan-04 00:33N 52°24' E 004°49'0 0.0
2015-Jan-03 23:33N 52°24' E 004°49'0 0.0
2015-Jan-03 22:33N 52°24' E 004°49'0 0.0
2015-Jan-03 21:33N 52°24' E 004°49'0 0.0
2015-Jan-03 20:33N 52°24' E 004°49'0 0.0
2015-Jan-03 19:33N 52°24' E 004°49'0 0.0
2015-Jan-03 18:33N 52°24' E 004°49'0 0.0
2015-Jan-03 17:33N 52°24' E 004°49'0 0.0
2015-Jan-03 16:33N 52°24' E 004°49'0 0.0
2015-Jan-03 15:30N 52°24' E 004°49'0 0.0
2015-Jan-03 14:33N 52°24' E 004°49'0 0.0
2015-Jan-03 13:33N 52°24' E 004°49'0 0.0
2015-Jan-03 12:33N 52°24' E 004°49'0 0.0
2015-Jan-03 11:33N 52°24' E 004°49'0 0.0
2015-Jan-03 10:33N 52°24' E 004°49'0 0.0
2015-Jan-03 09:33N 52°24' E 004°49'0 0.0
2015-Jan-03 08:30N 52°24' E 004°49'0 0.0
2015-Jan-03 07:33N 52°24' E 004°49'0 0.0
2015-Jan-03 06:33N 52°24' E 004°49'0 0.0
2015-Jan-03 05:33N 52°24' E 004°49'0 0.0
2015-Jan-03 04:33N 52°24' E 004°49'0 0.0
2015-Jan-03 03:33N 52°24' E 004°49'0 0.0
2015-Jan-03 02:33N 52°24' E 004°49'0 0.0
2015-Jan-03 01:33N 52°24' E 004°49'0 0.0
2015-Jan-03 00:33N 52°24' E 004°49'0 0.0
2015-Jan-02 23:33N 52°24' E 004°49'0 0.0
2015-Jan-02 22:33N 52°24' E 004°49'0 0.0
2015-Jan-02 21:33N 52°24' E 004°49'0 0.0
2015-Jan-02 20:33N 52°24' E 004°49'0 0.0
2015-Jan-02 19:33N 52°24' E 004°49'0 0.0
2015-Jan-02 18:33N 52°24' E 004°49'0 0.0
2015-Jan-02 17:33N 52°24' E 004°49'0 0.0
2015-Jan-02 16:33N 52°24' E 004°49'0 0.0
2015-Jan-02 15:33N 52°24' E 004°49'0 0.0
2015-Jan-02 14:33N 52°24' E 004°49'0 0.0
2015-Jan-02 13:33N 52°24' E 004°49'0 0.0
2015-Jan-02 12:30N 52°24' E 004°49'0 0.0
2015-Jan-02 11:33N 52°24' E 004°49'0 0.0
2015-Jan-02 10:33N 52°24' E 004°49'0 0.0
2015-Jan-02 09:33N 52°24' E 004°49'0 0.0
2015-Jan-02 08:33N 52°24' E 004°49'0 0.0
2015-Jan-02 07:33N 52°24' E 004°49'0 0.0
2015-Jan-02 06:33N 52°24' E 004°49'0 0.0
2015-Jan-02 05:33N 52°24' E 004°49'0 0.0
2015-Jan-02 04:33N 52°24' E 004°49'0 0.0
2015-Jan-02 03:33N 52°24' E 004°49'0 0.0
2015-Jan-02 02:33N 52°24' E 004°49'0 0.0
2015-Jan-02 01:33N 52°24' E 004°49'0 0.0
2015-Jan-02 00:33N 52°24' E 004°49'0 0.0
2015-Jan-01 23:33N 52°24' E 004°49'0 0.0
2015-Jan-01 22:33N 52°24' E 004°49'0 0.0
2015-Jan-01 21:33N 52°24' E 004°49'0 0.0
2015-Jan-01 20:33N 52°24' E 004°49'0 0.0
2015-Jan-01 19:33N 52°24' E 004°49'0 0.0
2015-Jan-01 18:33N 52°24' E 004°49'0 0.0
2015-Jan-01 17:33N 52°24' E 004°49'0 0.0
2015-Jan-01 16:33N 52°24' E 004°49'0 0.0
2015-Jan-01 15:33N 52°24' E 004°49'0 0.0
2015-Jan-01 14:33N 52°24' E 004°49'0 0.0
2015-Jan-01 13:33N 52°24' E 004°49'0 0.0
2015-Jan-01 12:33N 52°24' E 004°49'  

Dump ship's entire track history